Time;durP1;ratioP1;P1;durP2;ratioP2;P2;SDS_P1;SDS_P2;PMS_P1;PMS_P2;Temp;Humidity;BMP_temperature;BMP_pressure;BME280_temperature;BME280_humidity;BME280_pressure;Samples;Min_cycle;Max_cycle;Signal;HPM_P1;HPM_P2
2023/09/04 00:01:32;;;;;;;2.53;2.03;;;13.80;99.90;;;;;;7365795;19;20590;-62
2023/09/04 00:03:58;;;;;;;3.10;2.08;;;13.80;99.90;;;;;;7371543;19;20035;-63
2023/09/04 00:06:24;;;;;;;3.47;2.08;;;13.80;99.90;;;;;;7372682;19;20350;-63
2023/09/04 00:08:50;;;;;;;3.00;2.17;;;13.80;99.90;;;;;;7375963;19;20019;-63
2023/09/04 00:11:17;;;;;;;2.88;2.28;;;13.70;99.90;;;;;;7370953;19;20101;-63
2023/09/04 00:13:43;;;;;;;3.45;2.00;;;13.70;99.90;;;;;;7374543;19;20112;-63
2023/09/04 00:16:09;;;;;;;2.60;2.20;;;13.60;99.90;;;;;;7371077;19;20045;-63
2023/09/04 00:18:55;;;;;;;4.00;2.10;;;13.60;99.90;;;;;;7374402;19;20027;-63
2023/09/04 00:21:22;;;;;;;2.60;1.80;;;13.50;99.90;;;;;;7373580;19;20014;-63
2023/09/04 00:23:48;;;;;;;2.47;2.08;;;13.50;99.90;;;;;;7375050;19;20078;-63
2023/09/04 00:26:14;;;;;;;2.47;1.80;;;13.50;99.90;;;;;;7374030;19;20046;-63
2023/09/04 00:28:42;;;;;;;1.98;1.42;;;13.50;99.90;;;;;;7374068;19;20372;-63
2023/09/04 00:31:08;;;;;;;1.98;1.77;;;13.40;99.90;;;;;;7374775;19;20366;-63
2023/09/04 00:33:34;;;;;;;2.92;2.22;;;13.30;99.90;;;;;;7371433;19;20529;-63
2023/09/04 00:36:02;;;;;;;3.55;2.40;;;13.40;99.90;;;;;;7373022;19;20583;-64
2023/09/04 00:38:28;;;;;;;2.40;2.20;;;13.40;99.90;;;;;;7374296;19;20799;-62
2023/09/04 00:41:19;;;;;;;3.97;1.92;;;13.30;99.90;;;;;;7373130;19;20182;-62
2023/09/04 00:43:45;;;;;;;5.60;2.65;;;13.30;99.90;;;;;;7376987;19;20534;-63
2023/09/04 00:46:11;;;;;;;2.28;2.08;;;13.30;99.90;;;;;;7370812;19;20435;-64
2023/09/04 00:48:39;;;;;;;3.90;2.47;;;13.30;99.90;;;;;;7377350;19;20105;-62
2023/09/04 00:51:07;;;;;;;3.10;2.72;;;13.30;99.90;;;;;;7368713;19;20469;-63
2023/09/04 00:53:35;;;;;;;4.20;3.13;;;13.20;99.90;;;;;;7367645;19;20025;-63
2023/09/04 00:56:03;;;;;;;4.38;3.00;;;13.20;99.90;;;;;;7369737;19;20021;-63
2023/09/04 00:58:30;;;;;;;4.45;2.80;;;13.20;99.90;;;;;;7372402;19;20018;-63
2023/09/04 01:00:56;;;;;;;4.70;2.75;;;13.10;99.90;;;;;;7369177;19;20464;-63
2023/09/04 01:03:23;;;;;;;3.15;2.70;;;13.10;99.90;;;;;;7367688;19;20019;-63
2023/09/04 01:05:49;;;;;;;5.60;2.92;;;13.10;99.90;;;;;;7372950;19;20477;-67
2023/09/04 01:08:16;;;;;;;4.97;3.03;;;13.10;99.90;;;;;;7370606;19;20014;-67
2023/09/04 01:10:56;;;;;;;4.38;3.10;;;13.10;99.90;;;;;;7371496;19;20427;-67
2023/09/04 01:13:35;;;;;;;5.82;3.65;;;13.00;99.90;;;;;;7368640;19;20023;-66
2023/09/04 01:16:04;;;;;;;4.35;3.03;;;13.00;99.90;;;;;;7373355;19;20454;-66
2023/09/04 01:18:31;;;;;;;3.53;3.10;;;12.90;99.90;;;;;;7371997;19;20021;-66
2023/09/04 01:21:16;;;;;;;3.20;2.58;;;12.90;99.90;;;;;;7373455;19;20022;-66
2023/09/04 01:23:42;;;;;;;3.42;2.47;;;12.80;99.90;;;;;;7373127;19;20329;-67
2023/09/04 01:26:23;;;;;;;4.43;2.47;;;12.80;99.90;;;;;;7372634;19;20018;-68
2023/09/04 01:29:29;;;;;;;2.38;2.00;;;12.80;99.90;;;;;;7376102;19;20317;-66
2023/09/04 01:32:27;;;;;;;2.72;1.80;;;12.80;99.90;;;;;;7369423;19;20088;-67
2023/09/04 01:34:55;;;;;;;2.60;1.52;;;12.70;99.90;;;;;;7372716;19;20632;-67
2023/09/04 01:37:22;;;;;;;2.72;1.80;;;12.70;99.90;;;;;;7371155;19;20018;-67
2023/09/04 01:39:49;;;;;;;2.42;1.80;;;12.70;99.90;;;;;;7372368;19;20019;-67
2023/09/04 01:42:16;;;;;;;2.97;2.00;;;12.60;99.90;;;;;;7366851;19;20578;-68
2023/09/04 01:44:43;;;;;;;3.55;2.20;;;12.60;99.90;;;;;;7369507;19;20402;-66
2023/09/04 01:47:09;;;;;;;3.72;2.88;;;12.60;99.90;;;;;;7371740;19;20022;-66
2023/09/04 01:49:35;;;;;;;3.88;2.83;;;12.60;99.90;;;;;;7365988;19;20043;-67
2023/09/04 01:52:02;;;;;;;5.20;3.28;;;12.60;99.90;;;;;;7370888;19;20023;-66
2023/09/04 01:54:29;;;;;;;7.60;3.80;;;12.60;99.90;;;;;;7369315;19;21282;-67
2023/09/04 01:56:56;;;;;;;5.90;4.20;;;12.50;99.90;;;;;;7373486;19;20354;-67
2023/09/04 01:59:22;;;;;;;4.60;4.00;;;12.50;99.90;;;;;;7366129;19;20046;-67
2023/09/04 02:01:49;;;;;;;5.93;4.25;;;12.50;99.90;;;;;;7372497;19;20038;-63
2023/09/04 02:04:15;;;;;;;4.20;3.30;;;12.40;99.90;;;;;;7368259;19;20022;-62
2023/09/04 02:06:41;;;;;;;4.95;3.72;;;12.40;99.90;;;;;;7371004;19;20380;-61
2023/09/04 02:09:08;;;;;;;5.40;4.78;;;12.40;99.90;;;;;;7363322;19;20063;-66
2023/09/04 02:11:34;;;;;;;5.53;4.45;;;12.40;99.90;;;;;;7371748;19;20432;-62
2023/09/04 02:14:00;;;;;;;4.72;4.15;;;12.30;99.90;;;;;;7371025;19;20054;-61
2023/09/04 02:16:27;;;;;;;6.10;4.80;;;12.30;99.90;;;;;;7368926;19;20040;-63
2023/09/04 02:18:55;;;;;;;5.90;3.45;;;12.30;99.90;;;;;;7366363;19;20025;-63
2023/09/04 02:21:21;;;;;;;4.20;3.50;;;12.30;99.90;;;;;;7371315;19;20022;-67
2023/09/04 02:23:48;;;;;;;5.93;3.63;;;12.20;99.90;;;;;;7361636;19;20042;-67
2023/09/04 02:26:14;;;;;;;5.85;3.55;;;12.30;99.90;;;;;;7363237;19;20022;-67
2023/09/04 02:28:40;;;;;;;5.13;3.13;;;12.20;99.90;;;;;;7369308;19;20513;-67
2023/09/04 02:31:07;;;;;;;7.25;3.72;;;12.20;99.90;;;;;;7369658;19;20530;-67
2023/09/04 02:33:34;;;;;;;3.88;3.40;;;12.10;99.90;;;;;;7369573;19;20143;-66
2023/09/04 02:36:01;;;;;;;5.90;4.22;;;12.10;99.90;;;;;;7369757;19;20022;-66
2023/09/04 02:38:27;;;;;;;5.28;3.80;;;12.10;99.90;;;;;;7369064;19;20465;-66
2023/09/04 02:40:54;;;;;;;4.45;4.00;;;12.10;99.90;;;;;;7369517;19;20385;-67
2023/09/04 02:43:20;;;;;;;4.30;3.30;;;12.10;99.90;;;;;;7370772;19;20011;-66
2023/09/04 02:45:47;;;;;;;4.75;4.13;;;12.00;99.90;;;;;;7369167;19;20027;-61
2023/09/04 02:48:13;;;;;;;5.38;4.63;;;12.00;99.90;;;;;;7372948;19;20014;-66
2023/09/04 02:50:40;;;;;;;6.22;5.20;;;12.00;99.90;;;;;;7366329;19;20018;-67
2023/09/04 02:53:27;;;;;;;6.35;5.10;;;12.00;99.90;;;;;;7356360;19;20022;-67
2023/09/04 02:55:54;;;;;;;7.13;5.35;;;12.00;99.90;;;;;;7361729;19;20014;-62
2023/09/04 02:58:22;;;;;;;6.25;5.65;;;12.00;99.90;;;;;;7365789;19;20024;-61
2023/09/04 03:01:08;;;;;;;5.65;5.15;;;12.00;99.90;;;;;;7366126;19;20492;-62
2023/09/04 03:03:37;;;;;;;7.90;5.72;;;12.00;99.90;;;;;;7367819;19;20588;-62
2023/09/04 03:06:08;;;;;;;8.50;5.90;;;12.00;99.90;;;;;;7366524;19;20452;-62
2023/09/04 03:08:34;;;;;;;6.00;5.25;;;11.90;99.90;;;;;;7369585;19;20668;-62
2023/09/04 03:11:00;;;;;;;6.68;6.00;;;11.90;99.90;;;;;;7368116;19;20018;-62
2023/09/04 03:13:26;;;;;;;6.55;5.70;;;11.90;99.90;;;;;;7366742;19;20018;-62
2023/09/04 03:15:52;;;;;;;7.40;5.65;;;11.90;99.90;;;;;;7369079;19;20021;-62
2023/09/04 03:18:19;;;;;;;6.15;5.30;;;11.80;99.90;;;;;;7363624;19;20490;-61
2023/09/04 03:21:05;;;;;;;7.03;5.75;;;11.80;99.90;;;;;;7365387;19;20023;-62
2023/09/04 03:23:33;;;;;;;6.20;4.82;;;11.80;99.90;;;;;;7370535;19;20018;-62
2023/09/04 03:26:01;;;;;;;6.85;5.20;;;11.80;99.90;;;;;;7365656;19;20034;-62
2023/09/04 03:28:28;;;;;;;7.07;5.45;;;11.70;99.90;;;;;;7363447;19;20014;-62
2023/09/04 03:30:55;;;;;;;7.38;6.22;;;11.70;99.90;;;;;;7367270;19;20051;-61
2023/09/04 03:33:25;;;;;;;6.00;5.20;;;11.70;99.90;;;;;;7368448;19;20022;-62
2023/09/04 03:35:51;;;;;;;7.40;5.45;;;11.70;99.90;;;;;;7367515;19;20026;-62
2023/09/04 03:38:19;;;;;;;7.60;5.38;;;11.70;99.90;;;;;;7369003;19;20115;-64
2023/09/04 03:40:47;;;;;;;7.13;5.30;;;11.60;99.90;;;;;;7373310;19;20837;-64
2023/09/04 03:43:36;;;;;;;6.47;5.60;;;11.60;99.90;;;;;;7374776;19;20439;-64
2023/09/04 03:46:23;;;;;;;6.07;4.47;;;11.60;99.90;;;;;;7373339;19;20030;-63
2023/09/04 03:48:49;;;;;;;6.80;4.65;;;11.60;99.90;;;;;;7376370;19;20474;-67
2023/09/04 03:51:16;;;;;;;5.85;4.78;;;11.60;99.90;;;;;;7371943;19;20042;-63
2023/09/04 03:53:43;;;;;;;5.35;4.85;;;11.50;99.90;;;;;;7376163;19;20085;-68
2023/09/04 03:56:09;;;;;;;5.72;4.80;;;11.50;99.90;;;;;;7372878;19;20014;-63
2023/09/04 03:58:36;;;;;;;7.30;5.13;;;11.50;99.90;;;;;;7372958;19;20029;-63
2023/09/04 04:01:04;;;;;;;7.60;6.07;;;11.50;99.90;;;;;;7369540;19;20505;-64
2023/09/04 04:03:30;;;;;;;6.25;5.53;;;11.40;99.90;;;;;;7376916;19;20596;-67
2023/09/04 04:06:16;;;;;;;7.88;6.70;;;11.40;99.90;;;;;;7375508;19;20637;-65
2023/09/04 04:08:45;;;;;;;8.43;7.53;;;11.40;99.90;;;;;;7371209;19;20486;-65
2023/09/04 04:11:12;;;;;;;8.20;7.40;;;11.40;99.90;;;;;;7374320;19;20052;-66
2023/09/04 04:13:39;;;;;;;8.50;7.55;;;11.40;99.90;;;;;;7374122;19;20010;-63
2023/09/04 04:16:05;;;;;;;8.80;7.80;;;11.40;99.90;;;;;;7375262;19;20057;-62
2023/09/04 04:18:32;;;;;;;11.40;8.82;;;11.40;99.90;;;;;;7370793;19;20023;-62
2023/09/04 04:20:58;;;;;;;8.27;6.55;;;11.30;99.90;;;;;;7375635;19;20041;-62
2023/09/04 04:23:24;;;;;;;7.85;7.05;;;11.30;99.90;;;;;;7371354;19;20025;-63
2023/09/04 04:25:51;;;;;;;8.50;6.68;;;11.30;99.90;;;;;;7373407;19;20014;-62
2023/09/04 04:28:19;;;;;;;8.45;7.45;;;11.30;99.90;;;;;;7371530;19;20493;-62
2023/09/04 04:30:45;;;;;;;9.48;7.10;;;11.30;99.90;;;;;;7372110;19;20059;-62
2023/09/04 04:33:31;;;;;;;7.13;6.35;;;11.20;99.90;;;;;;7373975;19;20222;-62
2023/09/04 04:35:58;;;;;;;7.65;6.25;;;11.20;99.90;;;;;;7375841;19;20086;-62
2023/09/04 04:38:24;;;;;;;7.38;6.00;;;11.20;99.90;;;;;;7370185;19;20018;-62
2023/09/04 04:41:10;;;;;;;8.50;6.25;;;11.20;99.90;;;;;;7376687;19;20027;-63
2023/09/04 04:43:37;;;;;;;8.05;5.95;;;11.20;99.90;;;;;;7374467;19;20412;-62
2023/09/04 04:46:05;;;;;;;7.72;5.85;;;11.20;99.90;;;;;;7371649;19;20086;-62
2023/09/04 04:48:31;;;;;;;6.07;5.47;;;11.20;99.90;;;;;;7370664;19;20039;-63
2023/09/04 04:50:57;;;;;;;7.22;6.32;;;11.10;99.90;;;;;;7371160;19;20846;-62
2023/09/04 04:53:44;;;;;;;8.85;5.93;;;11.20;99.90;;;;;;7372492;19;20027;-63
2023/09/04 04:56:10;;;;;;;6.82;5.07;;;11.10;99.90;;;;;;7371090;19;20105;-63
2023/09/04 04:58:37;;;;;;;6.72;5.78;;;11.10;99.90;;;;;;7370190;19;20023;-63
2023/09/04 05:01:06;;;;;;;6.78;4.55;;;11.10;99.90;;;;;;7371525;19;20029;-62
2023/09/04 05:03:33;;;;;;;5.68;4.32;;;11.10;99.90;;;;;;7367948;19;20029;-63
2023/09/04 05:06:00;;;;;;;6.15;5.10;;;11.10;99.90;;;;;;7374216;19;20473;-63
2023/09/04 05:08:27;;;;;;;6.22;5.35;;;11.10;99.90;;;;;;7369913;19;20018;-63
2023/09/04 05:11:02;;;;;;;7.93;5.45;;;11.20;99.90;;;;;;7371589;19;20036;-63
2023/09/04 05:13:29;;;;;;;7.55;5.68;;;11.20;99.90;;;;;;7369310;19;20107;-62
2023/09/04 05:15:56;;;;;;;8.40;5.68;;;11.20;99.90;;;;;;7373644;19;20025;-63
2023/09/04 05:18:22;;;;;;;7.20;5.82;;;11.10;99.90;;;;;;7368374;19;20025;-63
2023/09/04 05:21:09;;;;;;;8.00;5.60;;;11.20;99.90;;;;;;7372169;19;20027;-63
2023/09/04 05:23:36;;;;;;;8.93;5.65;;;11.20;99.90;;;;;;7371525;19;20631;-63
2023/09/04 05:26:03;;;;;;;8.55;5.35;;;11.20;99.90;;;;;;7369479;19;20544;-64
2023/09/04 05:28:29;;;;;;;7.82;5.82;;;11.20;99.90;;;;;;7370865;19;20018;-63
2023/09/04 05:31:16;;;;;;;6.95;5.65;;;11.30;99.90;;;;;;7366438;19;20037;-66
2023/09/04 05:33:42;;;;;;;7.85;6.40;;;11.30;99.90;;;;;;7372316;19;20113;-63
2023/09/04 05:36:09;;;;;;;6.95;6.25;;;11.40;99.90;;;;;;7371622;19;20026;-63
2023/09/04 05:38:35;;;;;;;9.93;7.75;;;11.50;99.90;;;;;;7371761;19;20021;-62
2023/09/04 05:41:01;;;;;;;9.48;8.55;;;11.50;99.90;;;;;;7374343;19;20039;-67
2023/09/04 05:43:27;;;;;;;10.95;8.63;;;11.60;99.90;;;;;;7373298;19;20014;-67
2023/09/04 05:45:53;;;;;;;11.55;8.70;;;11.80;99.90;;;;;;7369538;19;20030;-67
2023/09/04 05:48:20;;;;;;;9.57;8.52;;;11.90;99.90;;;;;;7370812;19;20049;-66
2023/09/04 05:50:46;;;;;;;10.98;8.70;;;12.10;99.90;;;;;;7365574;19;20587;-61
2023/09/04 05:53:12;;;;;;;10.25;9.02;;;12.20;99.90;;;;;;7369709;19;20026;-67
2023/09/04 05:55:40;;;;;;;11.13;9.63;;;12.30;99.90;;;;;;7368880;19;20868;-68
2023/09/04 05:58:07;;;;;;;9.48;8.48;;;12.50;99.90;;;;;;7362037;19;21317;-68
2023/09/04 06:00:34;;;;;;;13.20;10.20;;;12.70;99.90;;;;;;7365789;19;20451;-68
2023/09/04 06:03:00;;;;;;;17.92;10.55;;;12.80;99.90;;;;;;7367123;19;20018;-69
2023/09/04 06:05:27;;;;;;;13.82;10.25;;;13.00;99.90;;;;;;7369158;19;20512;-68
2023/09/04 06:07:53;;;;;;;11.32;10.23;;;13.20;99.90;;;;;;7371736;19;20441;-68
2023/09/04 06:10:19;;;;;;;9.70;8.80;;;13.40;99.90;;;;;;7366169;19;20026;-62
2023/09/04 06:12:45;;;;;;;10.63;9.52;;;13.60;99.90;;;;;;7367064;19;20654;-68
2023/09/04 06:15:12;;;;;;;14.07;8.98;;;13.80;99.90;;;;;;7372139;19;20010;-63
2023/09/04 06:17:38;;;;;;;9.55;8.27;;;13.90;99.90;;;;;;7370245;19;20014;-63
2023/09/04 06:20:06;;;;;;;10.73;8.10;;;14.20;99.90;;;;;;7368118;19;20026;-68
2023/09/04 06:22:32;;;;;;;8.63;7.82;;;14.30;99.90;;;;;;7371912;19;20022;-68
2023/09/04 06:24:58;;;;;;;8.90;6.80;;;14.50;99.90;;;;;;7369492;19;20029;-67
2023/09/04 06:27:25;;;;;;;7.93;7.13;;;14.70;99.90;;;;;;7366349;19;20480;-64
2023/09/04 06:29:52;;;;;;;7.82;7.03;;;14.80;99.90;;;;;;7367946;19;20517;-68
2023/09/04 06:32:19;;;;;;;8.70;6.70;;;15.00;99.90;;;;;;7366256;19;20367;-63
2023/09/04 06:34:45;;;;;;;8.10;7.30;;;15.10;99.90;;;;;;7371348;19;20027;-63
2023/09/04 06:37:11;;;;;;;7.43;6.63;;;15.30;99.90;;;;;;7368375;19;20023;-64
2023/09/04 06:39:37;;;;;;;7.25;6.55;;;15.40;99.90;;;;;;7368059;19;20102;-63
2023/09/04 06:42:04;;;;;;;8.18;6.15;;;15.50;99.90;;;;;;7370314;19;20018;-63
2023/09/04 06:44:32;;;;;;;8.68;6.95;;;15.70;99.90;;;;;;7369002;19;20040;-63
2023/09/04 06:46:58;;;;;;;9.52;6.60;;;15.80;99.90;;;;;;7369906;19;20485;-63
2023/09/04 06:49:28;;;;;;;9.25;7.03;;;16.00;99.90;;;;;;7366824;19;20029;-62
2023/09/04 06:51:54;;;;;;;8.80;6.60;;;16.20;99.90;;;;;;7371227;19;20478;-62
2023/09/04 06:54:20;;;;;;;9.93;6.32;;;16.40;99.90;;;;;;7371697;19;20028;-63
2023/09/04 06:56:47;;;;;;;8.23;6.57;;;16.60;99.90;;;;;;7365888;19;20084;-62
2023/09/04 06:59:13;;;;;;;7.38;6.55;;;16.90;99.90;;;;;;7368505;19;20498;-63
2023/09/04 07:01:40;;;;;;;7.15;5.88;;;17.00;99.90;;;;;;7361919;19;20037;-63
2023/09/04 07:04:26;;;;;;;6.75;5.75;;;17.30;99.90;;;;;;7367015;19;20558;-63
2023/09/04 07:06:52;;;;;;;7.47;5.90;;;17.70;99.90;;;;;;7367643;19;20021;-62
2023/09/04 07:09:18;;;;;;;8.88;6.20;;;17.90;99.90;;;;;;7365573;19;20608;-63
2023/09/04 07:11:45;;;;;;;17.30;14.05;;;18.30;99.90;;;;;;7364779;19;20018;-63
2023/09/04 07:14:11;;;;;;;7.45;6.15;;;18.50;99.90;;;;;;7369902;19;20033;-60
2023/09/04 07:24:26;;;;;;;12.05;10.10;;;20.10;99.90;;;;;;7368270;19;20041;-64
2023/09/04 07:26:53;;;;;;;33.75;30.20;;;20.80;99.90;;;;;;7367770;19;21008;-64
2023/09/04 07:33:51;;;;;;;8.98;7.03;;;21.70;99.90;;;;;;7369226;19;20026;-65
2023/09/04 07:36:18;;;;;;;5.25;4.43;;;22.30;99.90;;;;;;7370849;19;20014;-67
2023/09/04 07:54:44;;;;;;;6.80;4.97;;;24.20;99.90;;;;;;7375002;19;20418;-65
2023/09/04 07:57:38;;;;;;;11.38;9.73;;;24.30;99.90;;;;;;7365739;19;20275;-65
2023/09/04 08:00:05;;;;;;;8.70;7.82;;;24.70;99.90;;;;;;7370348;19;20022;-71
2023/09/04 08:02:41;;;;;;;5.75;4.50;;;24.70;99.90;;;;;;7371410;19;20297;-74
2023/09/04 08:05:07;;;;;;;6.05;5.13;;;24.70;99.90;;;;;;7372268;19;20018;-74
2023/09/04 08:07:33;;;;;;;5.55;4.60;;;24.80;99.90;;;;;;7371137;19;20461;-75
2023/09/04 08:10:00;;;;;;;8.07;7.28;;;25.00;99.90;;;;;;7366633;19;20022;-75
2023/09/04 08:12:26;;;;;;;10.88;9.27;;;24.90;99.90;;;;;;7367634;19;20015;-74
2023/09/04 08:14:52;;;;;;;7.25;4.47;;;24.90;99.90;;;;;;7368370;19;20027;-69
2023/09/04 08:17:19;;;;;;;6.00;5.35;;;25.10;99.90;;;;;;7367240;19;20025;-74
2023/09/04 08:19:45;;;;;;;11.50;10.00;;;25.40;99.90;;;;;;7368427;19;20046;-70
2023/09/04 08:22:11;;;;;;;6.68;5.68;;;25.60;99.90;;;;;;7367116;19;20481;-68
2023/09/04 08:24:38;;;;;;;5.78;5.10;;;25.90;99.90;;;;;;7369821;19;20025;-65
2023/09/04 08:27:24;;;;;;;9.75;7.60;;;26.00;99.90;;;;;;7382053;19;20025;-85
2023/09/04 08:29:51;;;;;;;6.70;5.40;;;26.30;99.90;;;;;;7377048;19;20021;-84
2023/09/04 08:32:17;;;;;;;10.70;9.63;;;26.30;99.90;;;;;;7395890;19;20021;-84
2023/09/04 08:35:05;;;;;;;11.18;8.98;;;26.90;99.70;;;;;;7410817;19;20378;-73
2023/09/04 08:37:31;;;;;;;5.63;3.88;;;26.80;98.30;;;;;;7369210;19;20058;-73
2023/09/04 08:39:57;;;;;;;7.22;5.93;;;26.90;97.80;;;;;;7367582;19;20085;-74
2023/09/04 08:42:47;;;;;;;6.20;4.75;;;27.00;97.20;;;;;;7372657;19;20026;-74
2023/09/04 08:45:17;;;;;;;5.82;3.90;;;27.10;96.20;;;;;;7372167;19;20015;-72
2023/09/04 08:47:44;;;;;;;7.93;5.22;;;27.40;94.80;;;;;;7370194;19;20022;-73
2023/09/04 08:50:33;;;;;;;5.55;3.13;;;27.30;93.70;;;;;;7367978;19;20901;-73
2023/09/04 08:53:00;;;;;;;5.50;4.38;;;27.70;92.60;;;;;;7366048;19;20022;-73
2023/09/04 08:55:26;;;;;;;10.38;9.10;;;27.60;91.40;;;;;;7369605;19;20022;-72
2023/09/04 08:57:54;;;;;;;13.10;11.80;;;27.80;91.20;;;;;;7368043;19;20819;-68
2023/09/04 09:00:42;;;;;;;10.23;9.10;;;27.90;91.00;;;;;;7367029;19;20018;-67
2023/09/04 09:03:29;;;;;;;12.82;10.13;;;28.00;90.10;;;;;;7366157;19;20504;-67
2023/09/04 09:05:58;;;;;;;6.78;4.03;;;28.20;86.70;;;;;;7368538;19;20026;-67
2023/09/04 09:08:51;;;;;;;8.10;6.80;;;28.00;85.10;;;;;;7369032;19;20393;-68
2023/09/04 09:11:19;;;;;;;8.98;7.65;;;28.10;82.60;;;;;;7358523;19;20110;-67
2023/09/04 09:13:47;;;;;;;4.60;2.47;;;28.10;83.70;;;;;;7368328;19;20449;-68
2023/09/04 09:16:18;;;;;;;13.90;12.35;;;28.00;81.30;;;;;;7365676;19;20038;-67
2023/09/04 09:18:46;;;;;;;5.45;2.30;;;28.20;81.00;;;;;;7371996;19;20043;-67
2023/09/04 09:21:33;;;;;;;7.95;4.55;;;28.50;82.70;;;;;;7369308;19;20045;-66
2023/09/04 09:24:17;;;;;;;5.38;3.05;;;28.90;80.10;;;;;;7364945;19;20018;-67
2023/09/04 09:26:50;;;;;;;4.93;3.03;;;29.10;79.50;;;;;;7365448;19;20482;-67
2023/09/04 09:29:18;;;;;;;4.80;3.55;;;29.70;77.40;;;;;;7363795;19;20039;-62
2023/09/04 09:31:47;;;;;;;7.47;6.63;;;29.50;77.00;;;;;;7371847;19;20469;-62
2023/09/04 09:34:14;;;;;;;4.50;2.70;;;29.90;74.20;;;;;;7364279;19;20482;-72
2023/09/04 09:36:41;;;;;;;5.57;3.72;;;30.40;74.30;;;;;;7360962;19;20108;-74
2023/09/04 09:39:08;;;;;;;24.13;21.73;;;30.40;71.20;;;;;;7369552;19;20025;-74
2023/09/04 09:41:35;;;;;;;4.63;3.78;;;30.40;69.10;;;;;;7364109;19;20018;-71
2023/09/04 09:44:03;;;;;;;35.97;32.70;;;30.00;67.50;;;;;;7368024;19;20019;-72
2023/09/04 09:46:30;;;;;;;7.75;6.43;;;29.90;68.00;;;;;;7362370;19;20542;-70
2023/09/04 09:49:00;;;;;;;15.00;13.38;;;30.40;67.80;;;;;;7366464;19;20018;-70
2023/09/04 09:51:27;;;;;;;4.55;3.08;;;30.30;69.40;;;;;;7360635;19;20019;-71
2023/09/04 09:53:53;;;;;;;3.78;2.22;;;30.60;67.20;;;;;;7362913;19;20026;-74
2023/09/04 09:56:21;;;;;;;6.38;5.10;;;30.60;65.70;;;;;;7365197;19;20449;-71
2023/09/04 09:58:50;;;;;;;3.88;2.42;;;30.70;63.60;;;;;;7368617;19;20773;-69
2023/09/04 10:01:37;;;;;;;5.20;3.65;;;30.50;63.70;;;;;;7357393;19;20037;-69
2023/09/04 10:04:06;;;;;;;3.72;2.45;;;30.40;64.00;;;;;;7360562;19;20059;-68
2023/09/04 10:06:34;;;;;;;5.38;4.07;;;30.40;62.10;;;;;;7360215;19;20028;-69
2023/09/04 10:09:02;;;;;;;4.40;2.97;;;30.40;62.00;;;;;;7365398;19;20477;-68
2023/09/04 10:11:32;;;;;;;;;;;30.50;62.30;;;;;;7359057;19;20022;-67
2023/09/04 10:14:08;;;;;;;3.30;2.10;;;30.00;62.70;;;;;;7364216;19;19921;-67
2023/09/04 10:16:53;;;;;;;4.25;1.77;;;30.20;63.40;;;;;;7359653;19;20599;-68
2023/09/04 10:19:24;;;;;;;4.28;2.50;;;30.80;62.10;;;;;;7364298;19;20022;-69
2023/09/04 10:21:55;;;;;;;5.55;2.88;;;30.80;61.40;;;;;;7362698;19;20022;-68
2023/09/04 10:24:30;;;;;;;4.57;2.55;;;31.20;61.40;;;;;;7361744;19;20027;-69
2023/09/04 10:27:10;;;;;;;3.97;1.70;;;31.60;58.80;;;;;;7364606;19;20037;-68
2023/09/04 10:29:48;;;;;;;21.83;19.80;;;31.70;59.90;;;;;;7364385;19;20026;-62
2023/09/04 10:32:15;;;;;;;25.65;23.30;;;31.50;59.00;;;;;;7363479;19;20094;-62
2023/09/04 10:34:41;;;;;;;6.78;6.07;;;31.60;59.00;;;;;;7362758;19;20015;-64
2023/09/04 10:37:12;;;;;;;6.25;5.18;;;31.30;58.20;;;;;;7369400;19;20025;-71
2023/09/04 10:39:39;;;;;;;6.40;4.15;;;31.80;57.40;;;;;;7365102;19;20018;-64
2023/09/04 10:42:07;;;;;;;11.00;7.72;;;31.70;57.80;;;;;;7369425;19;20374;-64
2023/09/04 10:44:46;;;;;;;;;;;32.00;57.90;;;;;;7369087;19;20023;-64
2023/09/04 10:47:17;;;;;;;3.75;2.28;;;32.00;56.80;;;;;;7366275;19;19978;-66
2023/09/04 10:49:47;;;;;;;2.25;1.60;;;32.10;56.90;;;;;;7365414;19;20572;-69
2023/09/04 10:52:14;;;;;;;2.63;1.58;;;31.90;56.50;;;;;;7365740;19;20057;-67
2023/09/04 10:54:41;;;;;;;5.25;3.55;;;31.70;57.80;;;;;;7354470;19;20985;-66
2023/09/04 10:57:12;;;;;;;3.97;1.65;;;32.30;56.60;;;;;;7363561;19;20029;-66
2023/09/04 10:59:54;;;;;;;;;;;32.30;55.20;;;;;;7364316;19;20022;-66
2023/09/04 11:02:28;;;;;;;3.92;2.00;;;31.80;54.90;;;;;;7362118;19;19945;-65
2023/09/04 11:04:59;;;;;;;2.78;1.60;;;31.90;54.30;;;;;;7359246;19;20069;-65
2023/09/04 11:07:34;;;;;;;2.60;1.45;;;31.50;55.50;;;;;;7362276;19;20381;-65
2023/09/04 11:10:32;;;;;;;2.65;1.45;;;31.70;56.30;;;;;;7357392;19;20393;-65
2023/09/04 11:12:59;;;;;;;3.10;1.38;;;32.10;55.20;;;;;;7360308;19;20417;-66
2023/09/04 11:15:28;;;;;;;3.80;1.77;;;31.80;54.90;;;;;;7362037;19;20018;-66
2023/09/04 11:17:55;;;;;;;6.13;3.10;;;32.00;54.80;;;;;;7369402;19;20034;-77
2023/09/04 11:20:26;;;;;;;2.28;1.48;;;32.30;54.80;;;;;;7371484;19;20383;-77
2023/09/04 11:22:54;;;;;;;3.58;1.73;;;32.20;55.10;;;;;;7364483;19;20014;-77
2023/09/04 11:25:24;;;;;;;5.55;2.50;;;32.10;54.30;;;;;;7376342;19;20073;-78
2023/09/04 11:27:51;;;;;;;3.05;1.83;;;32.30;54.00;;;;;;7372923;19;20048;-76
2023/09/04 11:30:40;;;;;;;6.60;2.05;;;32.40;53.50;;;;;;7364985;19;20486;-75
2023/09/04 11:33:11;;;;;;;3.97;1.85;;;32.30;54.10;;;;;;7360090;19;20027;-75
2023/09/04 11:35:37;;;;;;;3.40;1.70;;;32.70;54.30;;;;;;7366558;19;20015;-66
2023/09/04 11:38:27;;;;;;;3.80;1.90;;;32.70;54.40;;;;;;7364585;19;20010;-66
2023/09/04 11:41:18;;;;;;;3.38;1.55;;;32.90;54.10;;;;;;7379721;19;20018;-72
2023/09/04 11:43:44;;;;;;;4.70;2.67;;;33.10;54.30;;;;;;7365108;19;20861;-65
2023/09/04 11:46:11;;;;;;;7.32;4.68;;;33.30;55.70;;;;;;7368315;19;20022;-65
2023/09/04 11:48:43;;;;;;;10.77;8.10;;;33.40;53.40;;;;;;7364705;19;20018;-65
2023/09/04 11:51:11;;;;;;;4.63;2.55;;;32.80;53.10;;;;;;7361782;19;20516;-65
2023/09/04 11:53:40;;;;;;;;;;;32.90;54.50;;;;;;7362010;19;20585;-66
2023/09/04 11:56:06;;;;;;;2.97;2.00;;;32.60;52.90;;;;;;7361145;19;19921;-65
2023/09/04 11:58:34;;;;;;;3.75;1.90;;;33.30;53.10;;;;;;7368939;19;20507;-66
2023/09/04 12:01:00;;;;;;;4.30;2.45;;;32.90;52.70;;;;;;7370294;19;20051;-66
2023/09/04 12:03:27;;;;;;;3.40;1.90;;;32.70;52.50;;;;;;7366740;19;20587;-66
2023/09/04 12:05:55;;;;;;;4.20;2.35;;;32.90;52.70;;;;;;7371121;19;20022;-66
2023/09/04 12:08:22;;;;;;;5.13;3.20;;;32.80;52.80;;;;;;7373424;19;20018;-66
2023/09/04 12:10:53;;;;;;;4.00;2.83;;;33.30;53.60;;;;;;7371640;19;20856;-66
2023/09/04 12:13:19;;;;;;;3.60;2.05;;;33.70;52.10;;;;;;7367419;19;20053;-73
2023/09/04 12:16:10;;;;;;;3.83;1.60;;;33.80;51.60;;;;;;7368834;19;20113;-73
2023/09/04 12:18:39;;;;;;;3.67;1.80;;;33.40;51.50;;;;;;7370190;19;20386;-73
2023/09/04 12:21:10;;;;;;;7.90;6.20;;;33.50;51.50;;;;;;7373610;19;20089;-73
2023/09/04 12:23:44;;;;;;;13.77;11.27;;;33.90;50.90;;;;;;7368929;19;20109;-73
2023/09/04 12:26:16;;;;;;;5.20;4.20;;;33.90;51.10;;;;;;7375996;19;20011;-66
2023/09/04 12:28:43;;;;;;;10.43;9.43;;;34.40;49.50;;;;;;7369357;19;20411;-65
2023/09/04 12:31:12;;;;;;;4.20;1.58;;;33.90;50.00;;;;;;7372208;19;20029;-65
2023/09/04 12:34:00;;;;;;;5.43;3.33;;;34.30;48.90;;;;;;7371004;19;20351;-60
2023/09/04 12:36:57;;;;;;;3.05;1.50;;;34.20;49.70;;;;;;7372946;19;20202;-63
2023/09/04 12:39:23;;;;;;;5.10;2.65;;;34.20;48.10;;;;;;7368751;19;20018;-69
2023/09/04 12:41:59;;;;;;;3.20;1.85;;;34.20;48.20;;;;;;7371708;19;20018;-68
2023/09/04 12:44:25;;;;;;;2.53;1.58;;;34.10;48.70;;;;;;7373896;19;20007;-70
2023/09/04 12:46:52;;;;;;;1.95;1.30;;;33.90;49.30;;;;;;7370363;19;20014;-71
2023/09/04 12:49:18;;;;;;;3.28;2.47;;;34.80;48.60;;;;;;7372277;19;20022;-70
2023/09/04 12:51:44;;;;;;;5.03;4.10;;;34.90;48.60;;;;;;7362395;19;20374;-70
2023/09/04 12:54:13;;;;;;;3.92;1.70;;;34.90;48.50;;;;;;7367595;19;20022;-70
2023/09/04 12:56:39;;;;;;;3.42;1.75;;;35.10;47.30;;;;;;7370696;19;20011;-70
2023/09/04 12:59:06;;;;;;;2.35;1.75;;;34.60;47.30;;;;;;7369866;19;20034;-70
2023/09/04 13:01:33;;;;;;;2.90;1.80;;;35.10;47.30;;;;;;7367264;19;20015;-70
2023/09/04 13:04:03;;;;;;;2.35;1.77;;;35.50;46.90;;;;;;7369041;19;20025;-70
2023/09/04 13:06:32;;;;;;;3.92;1.55;;;35.90;46.80;;;;;;7369683;19;20014;-69
2023/09/04 13:09:18;;;;;;;4.40;2.05;;;35.20;47.20;;;;;;7372402;19;20052;-69
2023/09/04 13:12:05;;;;;;;4.03;1.27;;;35.70;46.70;;;;;;7371923;19;20014;-70
2023/09/04 13:14:31;;;;;;;3.53;1.75;;;35.90;46.10;;;;;;7367798;19;20018;-70
2023/09/04 13:16:58;;;;;;;2.50;1.50;;;35.70;46.40;;;;;;7372185;19;20019;-61
2023/09/04 13:19:25;;;;;;;2.65;1.15;;;36.10;45.90;;;;;;7371675;19;20509;-61
2023/09/04 13:21:51;;;;;;;2.65;1.58;;;35.70;45.00;;;;;;7374391;19;20426;-62
2023/09/04 13:24:38;;;;;;;2.53;1.20;;;35.30;44.40;;;;;;7371616;19;20084;-62
2023/09/04 13:27:04;;;;;;;3.05;1.23;;;35.40;45.10;;;;;;7371740;19;20497;-62
2023/09/04 13:29:30;;;;;;;1.40;1.10;;;35.40;46.20;;;;;;7368216;19;20115;-62